sensor_id;sensor_type;location;lat;lon;timestamp;P1;durP1;ratioP1;P2;durP2;ratioP2
11957;SDS011;6039;52.576;13.348;2023-08-06T00:03:06;9.67;;;5.83;;
11957;SDS011;6039;52.576;13.348;2023-08-06T00:08:12;7.87;;;5.80;;
11957;SDS011;6039;52.576;13.348;2023-08-06T00:13:16;9.63;;;6.20;;
11957;SDS011;6039;52.576;13.348;2023-08-06T00:18:20;7.57;;;6.27;;
11957;SDS011;6039;52.576;13.348;2023-08-06T00:23:27;7.87;;;5.90;;
11957;SDS011;6039;52.576;13.348;2023-08-06T00:28:31;8.97;;;5.93;;
11957;SDS011;6039;52.576;13.348;2023-08-06T00:33:35;8.23;;;6.17;;
11957;SDS011;6039;52.576;13.348;2023-08-06T00:38:41;8.87;;;6.00;;
11957;SDS011;6039;52.576;13.348;2023-08-06T00:43:45;6.87;;;5.80;;
11957;SDS011;6039;52.576;13.348;2023-08-06T00:48:49;11.63;;;6.07;;
11957;SDS011;6039;52.576;13.348;2023-08-06T00:53:57;9.87;;;6.67;;
11957;SDS011;6039;52.576;13.348;2023-08-06T00:59:01;8.10;;;6.20;;
11957;SDS011;6039;52.576;13.348;2023-08-06T01:04:05;6.43;;;5.37;;
11957;SDS011;6039;52.576;13.348;2023-08-06T01:09:15;7.37;;;6.07;;
11957;SDS011;6039;52.576;13.348;2023-08-06T01:14:28;8.00;;;6.10;;
11957;SDS011;6039;52.576;13.348;2023-08-06T01:19:34;6.73;;;5.70;;
11957;SDS011;6039;52.576;13.348;2023-08-06T01:24:41;7.33;;;5.50;;
11957;SDS011;6039;52.576;13.348;2023-08-06T01:29:47;6.63;;;5.13;;
11957;SDS011;6039;52.576;13.348;2023-08-06T01:34:55;6.43;;;5.20;;
11957;SDS011;6039;52.576;13.348;2023-08-06T01:40:02;6.57;;;5.00;;
11957;SDS011;6039;52.576;13.348;2023-08-06T01:45:09;7.90;;;5.67;;
11957;SDS011;6039;52.576;13.348;2023-08-06T01:50:14;8.13;;;5.60;;
11957;SDS011;6039;52.576;13.348;2023-08-06T01:55:20;7.53;;;5.70;;
11957;SDS011;6039;52.576;13.348;2023-08-06T02:00:24;6.63;;;5.60;;
11957;SDS011;6039;52.576;13.348;2023-08-06T02:05:29;8.37;;;5.77;;
11957;SDS011;6039;52.576;13.348;2023-08-06T02:10:35;7.60;;;5.87;;
11957;SDS011;6039;52.576;13.348;2023-08-06T02:15:41;6.43;;;5.13;;
11957;SDS011;6039;52.576;13.348;2023-08-06T02:20:54;7.43;;;6.03;;
11957;SDS011;6039;52.576;13.348;2023-08-06T02:26:02;6.40;;;5.60;;
11957;SDS011;6039;52.576;13.348;2023-08-06T02:31:07;7.33;;;5.80;;
11957;SDS011;6039;52.576;13.348;2023-08-06T02:36:11;7.50;;;5.73;;
11957;SDS011;6039;52.576;13.348;2023-08-06T02:41:17;7.43;;;5.73;;
11957;SDS011;6039;52.576;13.348;2023-08-06T02:46:21;6.77;;;5.40;;
11957;SDS011;6039;52.576;13.348;2023-08-06T02:51:25;5.90;;;5.23;;
11957;SDS011;6039;52.576;13.348;2023-08-06T02:56:32;6.70;;;5.60;;
11957;SDS011;6039;52.576;13.348;2023-08-06T03:01:36;6.97;;;5.77;;
11957;SDS011;6039;52.576;13.348;2023-08-06T03:06:40;7.40;;;5.80;;
11957;SDS011;6039;52.576;13.348;2023-08-06T03:11:47;8.07;;;5.83;;
11957;SDS011;6039;52.576;13.348;2023-08-06T03:16:51;6.90;;;5.27;;
11957;SDS011;6039;52.576;13.348;2023-08-06T03:21:55;7.23;;;5.63;;
11957;SDS011;6039;52.576;13.348;2023-08-06T03:27:01;6.80;;;5.67;;
11957;SDS011;6039;52.576;13.348;2023-08-06T03:32:06;7.70;;;5.93;;
11957;SDS011;6039;52.576;13.348;2023-08-06T03:37:10;8.30;;;6.07;;
11957;SDS011;6039;52.576;13.348;2023-08-06T03:42:17;7.43;;;6.00;;
11957;SDS011;6039;52.576;13.348;2023-08-06T03:47:21;8.80;;;5.80;;
11957;SDS011;6039;52.576;13.348;2023-08-06T03:52:25;8.13;;;6.07;;
11957;SDS011;6039;52.576;13.348;2023-08-06T03:57:31;7.60;;;5.70;;
11957;SDS011;6039;52.576;13.348;2023-08-06T04:02:35;6.70;;;5.53;;
11957;SDS011;6039;52.576;13.348;2023-08-06T04:07:39;7.00;;;5.83;;
11957;SDS011;6039;52.576;13.348;2023-08-06T04:12:46;6.87;;;5.00;;
11957;SDS011;6039;52.576;13.348;2023-08-06T04:17:50;6.57;;;5.00;;
11957;SDS011;6039;52.576;13.348;2023-08-06T04:22:55;7.03;;;5.37;;
11957;SDS011;6039;52.576;13.348;2023-08-06T04:28:02;8.20;;;5.40;;
11957;SDS011;6039;52.576;13.348;2023-08-06T04:33:06;6.97;;;5.30;;
11957;SDS011;6039;52.576;13.348;2023-08-06T04:38:10;5.87;;;5.00;;
11957;SDS011;6039;52.576;13.348;2023-08-06T04:43:17;6.53;;;5.40;;
11957;SDS011;6039;52.576;13.348;2023-08-06T04:48:21;7.03;;;5.40;;
11957;SDS011;6039;52.576;13.348;2023-08-06T04:53:25;6.53;;;5.00;;
11957;SDS011;6039;52.576;13.348;2023-08-06T04:58:32;8.00;;;4.90;;
11957;SDS011;6039;52.576;13.348;2023-08-06T05:03:36;7.67;;;5.03;;
11957;SDS011;6039;52.576;13.348;2023-08-06T05:08:40;6.63;;;5.30;;
11957;SDS011;6039;52.576;13.348;2023-08-06T05:13:46;5.47;;;4.37;;
11957;SDS011;6039;52.576;13.348;2023-08-06T05:18:50;6.40;;;4.97;;
11957;SDS011;6039;52.576;13.348;2023-08-06T05:23:54;7.80;;;4.97;;
11957;SDS011;6039;52.576;13.348;2023-08-06T05:29:01;5.80;;;4.60;;
11957;SDS011;6039;52.576;13.348;2023-08-06T05:34:05;6.47;;;4.67;;
11957;SDS011;6039;52.576;13.348;2023-08-06T05:39:10;5.63;;;4.60;;
11957;SDS011;6039;52.576;13.348;2023-08-06T05:44:16;5.73;;;4.60;;
11957;SDS011;6039;52.576;13.348;2023-08-06T05:49:20;5.93;;;4.30;;
11957;SDS011;6039;52.576;13.348;2023-08-06T05:54:24;5.43;;;4.33;;
11957;SDS011;6039;52.576;13.348;2023-08-06T05:59:31;4.80;;;3.83;;
11957;SDS011;6039;52.576;13.348;2023-08-06T06:04:35;4.40;;;3.83;;
11957;SDS011;6039;52.576;13.348;2023-08-06T06:09:39;5.77;;;4.50;;
11957;SDS011;6039;52.576;13.348;2023-08-06T06:14:46;5.87;;;4.40;;
11957;SDS011;6039;52.576;13.348;2023-08-06T06:19:50;5.63;;;4.53;;
11957;SDS011;6039;52.576;13.348;2023-08-06T06:24:54;6.23;;;4.87;;
11957;SDS011;6039;52.576;13.348;2023-08-06T06:30:00;6.83;;;4.70;;
11957;SDS011;6039;52.576;13.348;2023-08-06T06:35:05;6.80;;;5.00;;
11957;SDS011;6039;52.576;13.348;2023-08-06T06:40:10;6.20;;;5.37;;
11957;SDS011;6039;52.576;13.348;2023-08-06T06:45:17;5.97;;;4.97;;
11957;SDS011;6039;52.576;13.348;2023-08-06T06:50:21;6.00;;;5.03;;
11957;SDS011;6039;52.576;13.348;2023-08-06T06:55:26;7.40;;;5.77;;
11957;SDS011;6039;52.576;13.348;2023-08-06T07:00:32;7.73;;;6.10;;
11957;SDS011;6039;52.576;13.348;2023-08-06T07:05:39;6.40;;;5.20;;
11957;SDS011;6039;52.576;13.348;2023-08-06T07:10:43;9.10;;;6.90;;
11957;SDS011;6039;52.576;13.348;2023-08-06T07:15:50;9.13;;;6.10;;
11957;SDS011;6039;52.576;13.348;2023-08-06T07:20:54;6.77;;;5.80;;
11957;SDS011;6039;52.576;13.348;2023-08-06T07:25:59;9.00;;;6.50;;
11957;SDS011;6039;52.576;13.348;2023-08-06T07:31:05;9.43;;;6.57;;
11957;SDS011;6039;52.576;13.348;2023-08-06T07:36:10;7.63;;;5.93;;
11957;SDS011;6039;52.576;13.348;2023-08-06T07:41:15;7.00;;;5.60;;
11957;SDS011;6039;52.576;13.348;2023-08-06T07:46:22;7.70;;;6.07;;
11957;SDS011;6039;52.576;13.348;2023-08-06T07:51:26;7.40;;;5.70;;
11957;SDS011;6039;52.576;13.348;2023-08-06T07:56:30;7.47;;;5.80;;
11957;SDS011;6039;52.576;13.348;2023-08-06T08:01:36;6.87;;;5.87;;
11957;SDS011;6039;52.576;13.348;2023-08-06T08:06:41;9.53;;;5.47;;
11957;SDS011;6039;52.576;13.348;2023-08-06T08:11:45;6.73;;;5.97;;
11957;SDS011;6039;52.576;13.348;2023-08-06T08:16:52;7.83;;;6.10;;
11957;SDS011;6039;52.576;13.348;2023-08-06T08:21:57;8.27;;;6.33;;
11957;SDS011;6039;52.576;13.348;2023-08-06T08:27:01;7.50;;;5.77;;
11957;SDS011;6039;52.576;13.348;2023-08-06T08:32:08;7.77;;;6.03;;
11957;SDS011;6039;52.576;13.348;2023-08-06T08:37:12;9.53;;;6.20;;
11957;SDS011;6039;52.576;13.348;2023-08-06T08:42:17;7.77;;;6.50;;
11957;SDS011;6039;52.576;13.348;2023-08-06T08:47:23;8.20;;;6.83;;
11957;SDS011;6039;52.576;13.348;2023-08-06T08:52:28;8.10;;;6.70;;
11957;SDS011;6039;52.576;13.348;2023-08-06T08:57:33;9.23;;;7.30;;
11957;SDS011;6039;52.576;13.348;2023-08-06T09:02:39;8.53;;;6.97;;
11957;SDS011;6039;52.576;13.348;2023-08-06T09:07:45;8.73;;;6.80;;
11957;SDS011;6039;52.576;13.348;2023-08-06T09:12:51;9.80;;;7.10;;
11957;SDS011;6039;52.576;13.348;2023-08-06T09:17:59;9.40;;;6.83;;
11957;SDS011;6039;52.576;13.348;2023-08-06T09:23:06;8.63;;;7.03;;
11957;SDS011;6039;52.576;13.348;2023-08-06T09:28:11;8.80;;;7.60;;
11957;SDS011;6039;52.576;13.348;2023-08-06T09:33:19;8.97;;;6.83;;
11957;SDS011;6039;52.576;13.348;2023-08-06T09:38:26;7.90;;;6.80;;
11957;SDS011;6039;52.576;13.348;2023-08-06T09:43:42;10.33;;;7.17;;
11957;SDS011;6039;52.576;13.348;2023-08-06T09:48:50;8.63;;;7.10;;
11957;SDS011;6039;52.576;13.348;2023-08-06T09:53:54;10.70;;;7.53;;
11957;SDS011;6039;52.576;13.348;2023-08-06T09:58:58;9.70;;;7.53;;
11957;SDS011;6039;52.576;13.348;2023-08-06T10:04:05;9.63;;;7.67;;
11957;SDS011;6039;52.576;13.348;2023-08-06T10:09:12;10.37;;;7.77;;
11957;SDS011;6039;52.576;13.348;2023-08-06T10:14:16;8.70;;;6.73;;
11957;SDS011;6039;52.576;13.348;2023-08-06T10:19:25;10.47;;;6.90;;
11957;SDS011;6039;52.576;13.348;2023-08-06T10:24:45;7.97;;;5.50;;
11957;SDS011;6039;52.576;13.348;2023-08-06T10:29:49;5.20;;;4.03;;
11957;SDS011;6039;52.576;13.348;2023-08-06T10:34:59;5.60;;;3.93;;
11957;SDS011;6039;52.576;13.348;2023-08-06T10:40:04;5.87;;;4.13;;
11957;SDS011;6039;52.576;13.348;2023-08-06T10:45:17;6.00;;;4.77;;
11957;SDS011;6039;52.576;13.348;2023-08-06T10:50:26;6.10;;;4.33;;
11957;SDS011;6039;52.576;13.348;2023-08-06T10:55:31;5.97;;;4.47;;
11957;SDS011;6039;52.576;13.348;2023-08-06T11:00:35;5.13;;;3.43;;
11957;SDS011;6039;52.576;13.348;2023-08-06T11:05:42;4.17;;;3.40;;
11957;SDS011;6039;52.576;13.348;2023-08-06T11:10:52;3.93;;;3.53;;
11957;SDS011;6039;52.576;13.348;2023-08-06T11:15:56;4.73;;;3.70;;
11957;SDS011;6039;52.576;13.348;2023-08-06T11:21:03;4.57;;;3.77;;
11957;SDS011;6039;52.576;13.348;2023-08-06T11:26:08;4.27;;;3.73;;
11957;SDS011;6039;52.576;13.348;2023-08-06T11:31:18;5.00;;;4.00;;
11957;SDS011;6039;52.576;13.348;2023-08-06T11:36:31;6.57;;;4.70;;
11957;SDS011;6039;52.576;13.348;2023-08-06T11:41:36;5.70;;;4.90;;
11957;SDS011;6039;52.576;13.348;2023-08-06T11:46:51;6.60;;;5.50;;
11957;SDS011;6039;52.576;13.348;2023-08-06T11:51:58;6.10;;;5.47;;
11957;SDS011;6039;52.576;13.348;2023-08-06T11:57:02;6.87;;;5.83;;
11957;SDS011;6039;52.576;13.348;2023-08-06T12:02:08;7.70;;;6.37;;
11957;SDS011;6039;52.576;13.348;2023-08-06T12:07:16;7.83;;;5.80;;
11957;SDS011;6039;52.576;13.348;2023-08-06T12:12:20;8.70;;;6.43;;
11957;SDS011;6039;52.576;13.348;2023-08-06T12:17:24;8.03;;;6.70;;
11957;SDS011;6039;52.576;13.348;2023-08-06T12:22:31;7.53;;;6.17;;
11957;SDS011;6039;52.576;13.348;2023-08-06T12:27:35;7.67;;;6.37;;
11957;SDS011;6039;52.576;13.348;2023-08-06T12:32:39;7.17;;;6.03;;
11957;SDS011;6039;52.576;13.348;2023-08-06T12:37:46;8.53;;;6.10;;
11957;SDS011;6039;52.576;13.348;2023-08-06T12:42:52;6.43;;;5.63;;
11957;SDS011;6039;52.576;13.348;2023-08-06T12:47:59;6.47;;;5.20;;
11957;SDS011;6039;52.576;13.348;2023-08-06T12:53:05;6.53;;;5.40;;
11957;SDS011;6039;52.576;13.348;2023-08-06T12:58:09;8.93;;;5.63;;
11957;SDS011;6039;52.576;13.348;2023-08-06T13:03:13;7.77;;;5.87;;
11957;SDS011;6039;52.576;13.348;2023-08-06T13:08:20;8.50;;;6.50;;
11957;SDS011;6039;52.576;13.348;2023-08-06T13:13:24;7.30;;;6.27;;
11957;SDS011;6039;52.576;13.348;2023-08-06T13:18:28;8.60;;;5.93;;
11957;SDS011;6039;52.576;13.348;2023-08-06T13:23:35;9.27;;;6.30;;
11957;SDS011;6039;52.576;13.348;2023-08-06T13:28:39;8.97;;;6.73;;
11957;SDS011;6039;52.576;13.348;2023-08-06T13:33:44;8.57;;;6.43;;
11957;SDS011;6039;52.576;13.348;2023-08-06T13:38:52;7.93;;;5.90;;
11957;SDS011;6039;52.576;13.348;2023-08-06T13:43:56;7.20;;;5.50;;
11957;SDS011;6039;52.576;13.348;2023-08-06T13:49:00;8.03;;;6.00;;
11957;SDS011;6039;52.576;13.348;2023-08-06T13:54:07;6.20;;;4.77;;
11957;SDS011;6039;52.576;13.348;2023-08-06T13:59:11;6.60;;;4.53;;
11957;SDS011;6039;52.576;13.348;2023-08-06T14:04:15;4.97;;;4.13;;
11957;SDS011;6039;52.576;13.348;2023-08-06T14:09:23;5.03;;;3.80;;
11957;SDS011;6039;52.576;13.348;2023-08-06T14:14:27;5.43;;;4.00;;
11957;SDS011;6039;52.576;13.348;2023-08-06T14:19:31;6.43;;;3.90;;
11957;SDS011;6039;52.576;13.348;2023-08-06T14:24:38;4.43;;;3.47;;
11957;SDS011;6039;52.576;13.348;2023-08-06T14:29:42;4.17;;;3.20;;
11957;SDS011;6039;52.576;13.348;2023-08-06T14:34:46;5.53;;;3.20;;
11957;SDS011;6039;52.576;13.348;2023-08-06T14:39:53;6.87;;;3.40;;
11957;SDS011;6039;52.576;13.348;2023-08-06T14:44:57;4.90;;;3.70;;
11957;SDS011;6039;52.576;13.348;2023-08-06T14:50:01;4.57;;;3.10;;
11957;SDS011;6039;52.576;13.348;2023-08-06T14:55:08;3.90;;;2.80;;
11957;SDS011;6039;52.576;13.348;2023-08-06T15:00:12;4.03;;;3.17;;
11957;SDS011;6039;52.576;13.348;2023-08-06T15:05:16;3.77;;;2.40;;
11957;SDS011;6039;52.576;13.348;2023-08-06T15:10:23;4.27;;;2.60;;
11957;SDS011;6039;52.576;13.348;2023-08-06T15:15:27;3.43;;;2.83;;
11957;SDS011;6039;52.576;13.348;2023-08-06T15:20:31;4.63;;;3.00;;
11957;SDS011;6039;52.576;13.348;2023-08-06T15:25:37;2.80;;;2.37;;
11957;SDS011;6039;52.576;13.348;2023-08-06T15:30:42;2.90;;;2.60;;
11957;SDS011;6039;52.576;13.348;2023-08-06T15:35:52;3.27;;;2.60;;
11957;SDS011;6039;52.576;13.348;2023-08-06T15:41:00;4.17;;;2.70;;
11957;SDS011;6039;52.576;13.348;2023-08-06T15:46:04;5.00;;;3.03;;
11957;SDS011;6039;52.576;13.348;2023-08-06T15:51:08;2.90;;;2.50;;
11957;SDS011;6039;52.576;13.348;2023-08-06T15:56:14;4.23;;;2.47;;
11957;SDS011;6039;52.576;13.348;2023-08-06T16:01:18;5.93;;;4.33;;
11957;SDS011;6039;52.576;13.348;2023-08-06T16:06:22;3.30;;;2.57;;
11957;SDS011;6039;52.576;13.348;2023-08-06T16:11:29;2.90;;;2.50;;
11957;SDS011;6039;52.576;13.348;2023-08-06T16:16:33;2.53;;;2.10;;
11957;SDS011;6039;52.576;13.348;2023-08-06T16:21:38;2.90;;;2.33;;
11957;SDS011;6039;52.576;13.348;2023-08-06T16:26:44;2.10;;;1.90;;
11957;SDS011;6039;52.576;13.348;2023-08-06T16:31:49;3.17;;;2.17;;
11957;SDS011;6039;52.576;13.348;2023-08-06T16:36:53;3.60;;;2.20;;
11957;SDS011;6039;52.576;13.348;2023-08-06T16:42:00;3.30;;;2.40;;
11957;SDS011;6039;52.576;13.348;2023-08-06T16:47:06;3.03;;;2.30;;
11957;SDS011;6039;52.576;13.348;2023-08-06T16:52:10;2.80;;;2.20;;
11957;SDS011;6039;52.576;13.348;2023-08-06T16:57:16;3.33;;;2.30;;
11957;SDS011;6039;52.576;13.348;2023-08-06T17:02:20;4.90;;;2.40;;
11957;SDS011;6039;52.576;13.348;2023-08-06T17:07:24;3.43;;;2.17;;
11957;SDS011;6039;52.576;13.348;2023-08-06T17:12:31;4.63;;;2.50;;
11957;SDS011;6039;52.576;13.348;2023-08-06T17:17:35;2.63;;;2.13;;
11957;SDS011;6039;52.576;13.348;2023-08-06T17:22:39;2.70;;;1.80;;
11957;SDS011;6039;52.576;13.348;2023-08-06T17:27:45;2.40;;;1.80;;
11957;SDS011;6039;52.576;13.348;2023-08-06T17:32:50;2.60;;;1.73;;
11957;SDS011;6039;52.576;13.348;2023-08-06T17:37:54;2.30;;;2.00;;
11957;SDS011;6039;52.576;13.348;2023-08-06T17:43:02;3.70;;;2.00;;
11957;SDS011;6039;52.576;13.348;2023-08-06T17:48:06;2.57;;;2.10;;
11957;SDS011;6039;52.576;13.348;2023-08-06T17:53:10;3.77;;;2.30;;
11957;SDS011;6039;52.576;13.348;2023-08-06T17:58:16;4.03;;;2.37;;
11957;SDS011;6039;52.576;13.348;2023-08-06T18:03:20;3.07;;;2.63;;
11957;SDS011;6039;52.576;13.348;2023-08-06T18:08:24;4.50;;;2.67;;
11957;SDS011;6039;52.576;13.348;2023-08-06T18:13:31;4.37;;;2.37;;
11957;SDS011;6039;52.576;13.348;2023-08-06T18:18:35;3.70;;;2.20;;
11957;SDS011;6039;52.576;13.348;2023-08-06T18:23:39;3.70;;;2.30;;
11957;SDS011;6039;52.576;13.348;2023-08-06T18:28:46;2.83;;;2.00;;
11957;SDS011;6039;52.576;13.348;2023-08-06T18:33:50;3.30;;;2.10;;
11957;SDS011;6039;52.576;13.348;2023-08-06T18:38:54;2.87;;;2.30;;
11957;SDS011;6039;52.576;13.348;2023-08-06T18:44:00;4.67;;;2.60;;
11957;SDS011;6039;52.576;13.348;2023-08-06T18:49:04;4.93;;;2.53;;
11957;SDS011;6039;52.576;13.348;2023-08-06T18:54:08;3.37;;;2.13;;
11957;SDS011;6039;52.576;13.348;2023-08-06T18:59:15;4.87;;;2.50;;
11957;SDS011;6039;52.576;13.348;2023-08-06T19:04:22;3.33;;;2.73;;
11957;SDS011;6039;52.576;13.348;2023-08-06T19:09:26;4.33;;;3.00;;
11957;SDS011;6039;52.576;13.348;2023-08-06T19:14:33;3.60;;;2.83;;
11957;SDS011;6039;52.576;13.348;2023-08-06T19:19:37;6.63;;;2.43;;
11957;SDS011;6039;52.576;13.348;2023-08-06T19:24:43;3.07;;;2.40;;
11957;SDS011;6039;52.576;13.348;2023-08-06T19:29:50;3.47;;;2.53;;
11957;SDS011;6039;52.576;13.348;2023-08-06T19:34:54;5.30;;;2.47;;
11957;SDS011;6039;52.576;13.348;2023-08-06T19:39:58;3.40;;;2.43;;
11957;SDS011;6039;52.576;13.348;2023-08-06T19:45:06;3.40;;;2.60;;
11957;SDS011;6039;52.576;13.348;2023-08-06T19:50:11;4.97;;;2.47;;
11957;SDS011;6039;52.576;13.348;2023-08-06T19:55:15;2.53;;;2.20;;
11957;SDS011;6039;52.576;13.348;2023-08-06T20:00:21;3.50;;;2.63;;
11957;SDS011;6039;52.576;13.348;2023-08-06T20:05:26;3.67;;;2.70;;
11957;SDS011;6039;52.576;13.348;2023-08-06T20:10:30;4.17;;;2.70;;
11957;SDS011;6039;52.576;13.348;2023-08-06T20:15:37;3.43;;;2.80;;
11957;SDS011;6039;52.576;13.348;2023-08-06T20:20:41;4.43;;;2.70;;
11957;SDS011;6039;52.576;13.348;2023-08-06T20:25:45;3.00;;;2.20;;
11957;SDS011;6039;52.576;13.348;2023-08-06T20:30:52;5.20;;;2.60;;
11957;SDS011;6039;52.576;13.348;2023-08-06T20:35:57;3.00;;;2.30;;
11957;SDS011;6039;52.576;13.348;2023-08-06T20:41:01;4.53;;;2.33;;
11957;SDS011;6039;52.576;13.348;2023-08-06T20:46:08;2.47;;;2.10;;
11957;SDS011;6039;52.576;13.348;2023-08-06T20:51:12;2.30;;;1.90;;
11957;SDS011;6039;52.576;13.348;2023-08-06T20:56:15;4.03;;;2.30;;
11957;SDS011;6039;52.576;13.348;2023-08-06T21:01:23;2.70;;;2.17;;
11957;SDS011;6039;52.576;13.348;2023-08-06T21:06:27;4.00;;;2.80;;
11957;SDS011;6039;52.576;13.348;2023-08-06T21:11:31;2.37;;;1.87;;
11957;SDS011;6039;52.576;13.348;2023-08-06T21:16:37;2.67;;;1.70;;
11957;SDS011;6039;52.576;13.348;2023-08-06T21:21:41;2.20;;;1.70;;
11957;SDS011;6039;52.576;13.348;2023-08-06T21:26:46;1.73;;;1.33;;
11957;SDS011;6039;52.576;13.348;2023-08-06T21:31:52;1.60;;;1.50;;
11957;SDS011;6039;52.576;13.348;2023-08-06T21:36:56;3.43;;;1.43;;
11957;SDS011;6039;52.576;13.348;2023-08-06T21:42:00;3.53;;;1.70;;
11957;SDS011;6039;52.576;13.348;2023-08-06T21:47:07;1.93;;;1.47;;
11957;SDS011;6039;52.576;13.348;2023-08-06T21:52:11;1.67;;;1.47;;
11957;SDS011;6039;52.576;13.348;2023-08-06T21:57:15;3.90;;;1.70;;
11957;SDS011;6039;52.576;13.348;2023-08-06T22:02:22;3.53;;;2.00;;
11957;SDS011;6039;52.576;13.348;2023-08-06T22:07:26;4.77;;;1.90;;
11957;SDS011;6039;52.576;13.348;2023-08-06T22:12:30;2.50;;;1.90;;
11957;SDS011;6039;52.576;13.348;2023-08-06T22:17:36;1.97;;;1.70;;
11957;SDS011;6039;52.576;13.348;2023-08-06T22:22:40;2.30;;;1.73;;
11957;SDS011;6039;52.576;13.348;2023-08-06T22:27:44;2.80;;;1.97;;
11957;SDS011;6039;52.576;13.348;2023-08-06T22:32:51;2.20;;;1.70;;
11957;SDS011;6039;52.576;13.348;2023-08-06T22:37:55;2.70;;;1.63;;
11957;SDS011;6039;52.576;13.348;2023-08-06T22:42:59;2.77;;;2.00;;
11957;SDS011;6039;52.576;13.348;2023-08-06T22:48:06;2.60;;;1.77;;
11957;SDS011;6039;52.576;13.348;2023-08-06T22:53:10;3.17;;;1.80;;
11957;SDS011;6039;52.576;13.348;2023-08-06T22:58:14;3.53;;;2.00;;
11957;SDS011;6039;52.576;13.348;2023-08-06T23:03:21;3.43;;;1.53;;
11957;SDS011;6039;52.576;13.348;2023-08-06T23:08:25;2.63;;;1.90;;
11957;SDS011;6039;52.576;13.348;2023-08-06T23:13:29;2.20;;;1.83;;
11957;SDS011;6039;52.576;13.348;2023-08-06T23:18:36;4.60;;;2.03;;
11957;SDS011;6039;52.576;13.348;2023-08-06T23:23:40;3.07;;;1.80;;
11957;SDS011;6039;52.576;13.348;2023-08-06T23:28:44;2.33;;;1.87;;
11957;SDS011;6039;52.576;13.348;2023-08-06T23:33:51;2.97;;;1.70;;
11957;SDS011;6039;52.576;13.348;2023-08-06T23:38:55;2.23;;;1.70;;
11957;SDS011;6039;52.576;13.348;2023-08-06T23:43:59;2.23;;;1.60;;
11957;SDS011;6039;52.576;13.348;2023-08-06T23:49:06;2.60;;;1.93;;
11957;SDS011;6039;52.576;13.348;2023-08-06T23:54:10;2.50;;;1.77;;
11957;SDS011;6039;52.576;13.348;2023-08-06T23:59:14;3.27;;;2.07;;
